createdAt,value
2018-03-25T00:01:43.503Z,100302.19
2018-03-25T00:04:12.562Z,100300.25
2018-03-25T00:06:41.632Z,100298.98
2018-03-25T00:09:10.984Z,100299.41
2018-03-25T00:11:40.073Z,100296.28
2018-03-25T00:14:09.115Z,100296.78
2018-03-25T00:16:38.520Z,100302.25
2018-03-25T00:19:07.562Z,100303.03
2018-03-25T00:21:36.611Z,100300.83
2018-03-25T00:24:05.688Z,100297.55
2018-03-25T00:26:34.531Z,100300.33
2018-03-25T00:29:03.571Z,100298.05
2018-03-25T00:31:32.726Z,100305.73
2018-03-25T00:34:01.771Z,100307.90
2018-03-25T00:36:30.812Z,100305.66
2018-03-25T00:39:00.612Z,100308.37
2018-03-25T00:41:29.655Z,100316.13
2018-03-25T00:43:58.701Z,100313.53
2018-03-25T00:46:28.062Z,100316.69
2018-03-25T00:48:57.108Z,100308.59
2018-03-25T00:51:26.193Z,100313.53
2018-03-25T00:53:55.518Z,100306.31
2018-03-25T00:56:24.595Z,100318.05
2018-03-25T00:58:53.639Z,100313.53
2018-03-25T01:01:22.961Z,100319.01
2018-03-25T01:03:52.028Z,100319.82
2018-03-25T01:06:21.070Z,100316.23
2018-03-25T01:11:46.894Z,100317.97
2018-03-25T01:14:15.944Z,100316.55
2018-03-25T01:16:44.830Z,100320.59
2018-03-25T01:19:13.963Z,100323.30
2018-03-25T01:21:43.008Z,100327.86
2018-03-25T01:24:12.060Z,100321.17
2018-03-25T01:26:41.131Z,100323.88
2018-03-25T01:29:10.188Z,100333.62
2018-03-25T01:31:39.239Z,100333.69
2018-03-25T01:34:08.628Z,100337.23
2018-03-25T01:36:37.884Z,100339.91
2018-03-25T01:39:06.956Z,100341.72
2018-03-25T01:41:36.299Z,100339.45
2018-03-25T01:44:05.357Z,100342.22
2018-03-25T01:46:34.408Z,100334.11
2018-03-25T01:49:03.857Z,100339.52
2018-03-25T01:51:32.900Z,100331.84
2018-03-25T01:54:01.960Z,100335.89
2018-03-25T01:56:31.021Z,100333.69
2018-03-25T01:59:00.067Z,100332.83
2018-03-25T02:01:28.951Z,100332.33
2018-03-25T02:03:58.417Z,100333.27
2018-03-25T02:06:27.471Z,100334.19
2018-03-25T02:08:56.425Z,100339.95
2018-03-25T02:11:25.568Z,100343.64
2018-03-25T02:13:54.620Z,100338.23
2018-03-25T02:16:23.669Z,100345.50
2018-03-25T02:18:52.998Z,100345.92
2018-03-25T02:21:22.036Z,100349.05
2018-03-25T02:23:51.092Z,100347.27
2018-03-25T02:26:20.437Z,100349.05
2018-03-25T02:28:49.489Z,100351.75
2018-03-25T02:31:18.538Z,100348.13
2018-03-25T02:33:47.885Z,100355.38
2018-03-25T02:36:16.980Z,100355.87
2018-03-25T02:38:46.040Z,100355.92
2018-03-25T02:41:15.377Z,100355.92
2018-03-25T02:43:44.263Z,100353.36
2018-03-25T02:46:13.312Z,100353.29
2018-03-25T02:48:42.676Z,100357.70
2018-03-25T02:51:11.719Z,100359.47
2018-03-25T02:53:40.762Z,100360.40
2018-03-25T02:56:10.125Z,100361.64
2018-03-25T02:58:39.168Z,100366.69
2018-03-25T03:01:08.220Z,100367.54
2018-03-25T03:03:37.284Z,100365.77
2018-03-25T03:06:06.346Z,100368.47
2018-03-25T03:08:35.406Z,100369.86
2018-03-25T03:11:04.808Z,100365.87
2018-03-25T03:13:33.893Z,100373.63
2018-03-25T03:16:02.941Z,100372.81
2018-03-25T03:18:32.377Z,100374.48
2018-03-25T03:21:01.278Z,100372.31
2018-03-25T03:23:30.333Z,100374.78
2018-03-25T03:25:59.672Z,100374.50
2018-03-25T03:28:28.728Z,100381.44
2018-03-25T03:30:57.774Z,100385.49
2018-03-25T03:33:27.182Z,100387.52
2018-03-25T03:35:56.852Z,100393.61
2018-03-25T03:38:26.595Z,100393.25
2018-03-25T03:40:55.660Z,100390.59
2018-03-25T03:43:24.718Z,100391.23
2018-03-25T03:45:53.760Z,100396.74
2018-03-25T03:48:23.117Z,100401.83
2018-03-25T03:50:52.155Z,100395.58
2018-03-25T03:53:21.221Z,100398.84
2018-03-25T03:55:50.673Z,100398.53
2018-03-25T03:58:19.716Z,100403.54
2018-03-25T04:00:48.775Z,100403.19
2018-03-25T04:03:18.080Z,100404.97
2018-03-25T04:05:47.152Z,100401.09
2018-03-25T04:08:16.212Z,100411.72
2018-03-25T04:10:45.566Z,100410.02
2018-03-25T04:13:14.613Z,100411.54
2018-03-25T04:15:43.660Z,100420.18
2018-03-25T04:18:13.013Z,100423.73
2018-03-25T04:20:41.872Z,100416.70
2018-03-25T04:23:10.918Z,100420.75
2018-03-25T04:25:40.236Z,100421.24
2018-03-25T04:28:09.280Z,100424.41
2018-03-25T04:30:38.331Z,100426.64
2018-03-25T04:33:07.695Z,100427.11
2018-03-25T04:35:36.744Z,100434.36
2018-03-25T04:38:05.627Z,100437.23
2018-03-25T04:40:34.985Z,100433.12
2018-03-25T04:43:04.037Z,100435.46
2018-03-25T04:45:33.088Z,100431.05
2018-03-25T04:48:02.155Z,100432.23
2018-03-25T04:50:31.036Z,100438.66
2018-03-25T04:53:00.080Z,100438.34
2018-03-25T04:55:29.407Z,100443.99
2018-03-25T04:57:58.469Z,100440.86
2018-03-25T05:00:27.517Z,100439.76
2018-03-25T05:02:57.058Z,100442.14
2018-03-25T05:05:26.116Z,100447.37
2018-03-25T05:07:55.159Z,100444.73
2018-03-25T05:10:24.333Z,100446.52
2018-03-25T05:12:53.380Z,100449.64
2018-03-25T05:15:22.432Z,100450.00
2018-03-25T05:17:51.811Z,100449.28
2018-03-25T05:20:20.852Z,100454.30
2018-03-25T05:22:49.896Z,100452.45
2018-03-25T05:25:19.286Z,100453.08
2018-03-25T05:27:48.336Z,100454.47
2018-03-25T05:30:17.388Z,100455.89
2018-03-25T05:32:46.740Z,100457.98
2018-03-25T05:35:15.796Z,100466.59
2018-03-25T05:37:44.849Z,100467.98
2018-03-25T05:40:13.916Z,100469.00
2018-03-25T05:42:42.968Z,100475.90
2018-03-25T05:45:12.024Z,100478.45
2018-03-25T05:47:41.596Z,100478.45
2018-03-25T05:50:10.652Z,100479.38
2018-03-25T05:52:39.696Z,100482.05
2018-03-25T05:55:09.869Z,100477.99
2018-03-25T05:57:38.912Z,100484.25
2018-03-25T06:00:07.806Z,100492.59
2018-03-25T06:02:37.157Z,100491.25
2018-03-25T06:05:06.228Z,100504.42
2018-03-25T06:07:35.288Z,100498.70
2018-03-25T06:10:04.657Z,100506.88
2018-03-25T06:12:33.709Z,100511.70
2018-03-25T06:15:02.762Z,100511.28
2018-03-25T06:17:32.137Z,100507.41
2018-03-25T06:20:01.214Z,100511.91
2018-03-25T06:22:30.444Z,100516.82
2018-03-25T06:24:59.625Z,100524.42
2018-03-25T06:27:28.668Z,100525.41
2018-03-25T06:29:58.480Z,100526.62
2018-03-25T06:32:27.962Z,100533.95
2018-03-25T06:34:57.059Z,100535.30
2018-03-25T06:37:26.104Z,100538.92
2018-03-25T06:39:55.472Z,100546.03
2018-03-25T06:42:24.525Z,100546.13
2018-03-25T06:44:53.564Z,100554.30
2018-03-25T06:47:22.929Z,100558.71
2018-03-25T06:49:51.972Z,100555.48
2018-03-25T06:52:21.030Z,100558.94
2018-03-25T06:54:50.403Z,100566.17
2018-03-25T06:57:19.452Z,100571.26
2018-03-25T06:59:48.496Z,100583.94
2018-03-25T07:02:17.570Z,100583.84
2018-03-25T07:04:46.630Z,100594.28
2018-03-25T07:07:15.671Z,100594.70
2018-03-25T07:09:44.762Z,100596.41
2018-03-25T07:12:14.008Z,100600.11
2018-03-25T07:14:43.061Z,100601.48
2018-03-25T07:17:12.385Z,100604.62
2018-03-25T07:19:41.436Z,100606.30
2018-03-25T07:22:10.481Z,100606.69
2018-03-25T07:24:39.550Z,100613.97
2018-03-25T07:27:08.592Z,100608.92
2018-03-25T07:29:37.640Z,100611.16
2018-03-25T07:32:06.718Z,100613.90
2018-03-25T07:34:35.777Z,100618.38
2018-03-25T07:37:10.396Z,100616.73
2018-03-25T07:39:45.042Z,100623.78
2018-03-25T07:42:17.397Z,100626.98
2018-03-25T07:44:47.043Z,100633.89
2018-03-25T07:47:16.172Z,100638.83
2018-03-25T07:49:45.236Z,100636.49
2018-03-25T07:52:14.292Z,100635.50
2018-03-25T07:54:43.336Z,100643.25
2018-03-25T07:57:12.736Z,100645.09
2018-03-25T07:59:41.788Z,100648.75
2018-03-25T08:02:10.842Z,100650.98
2018-03-25T08:04:40.224Z,100653.72
2018-03-25T08:07:09.288Z,100646.97
2018-03-25T08:09:38.332Z,100656.59
2018-03-25T08:12:07.699Z,100662.05
2018-03-25T08:14:36.834Z,100665.12
2018-03-25T08:17:05.882Z,100671.87
2018-03-25T08:19:35.244Z,100671.02
2018-03-25T08:22:04.284Z,100662.41
2018-03-25T08:24:33.340Z,100675.92
2018-03-25T08:27:02.713Z,100674.27
2018-03-25T08:29:31.982Z,100678.85
2018-03-25T08:32:01.041Z,100677.08
2018-03-25T08:34:30.116Z,100676.16
2018-03-25T08:36:59.165Z,100677.93
2018-03-25T08:39:28.951Z,100681.06
2018-03-25T08:41:57.841Z,100685.11
2018-03-25T08:44:26.907Z,100686.59
2018-03-25T08:46:55.969Z,100684.81
2018-03-25T08:49:25.045Z,100691.56
2018-03-25T08:51:54.108Z,100693.94
2018-03-25T08:54:23.196Z,100698.41
2018-03-25T08:56:52.481Z,100698.48
2018-03-25T08:59:21.359Z,100696.73
2018-03-25T09:01:50.271Z,100706.75
2018-03-25T09:04:19.344Z,100705.27
2018-03-25T09:06:48.391Z,100710.66
2018-03-25T09:09:17.432Z,100708.63
2018-03-25T09:11:46.851Z,100714.61
2018-03-25T09:14:15.956Z,100712.18
2018-03-25T09:16:45.008Z,100709.45
2018-03-25T09:19:14.076Z,100713.23
2018-03-25T09:21:43.123Z,100712.24
2018-03-25T09:24:12.175Z,100708.33
2018-03-25T09:26:41.268Z,100710.27
2018-03-25T09:29:10.332Z,100709.34
2018-03-25T09:31:39.496Z,100715.97
2018-03-25T09:34:08.895Z,100723.70
2018-03-25T09:36:37.954Z,100717.94
2018-03-25T09:39:07.085Z,100720.14
2018-03-25T09:41:36.483Z,100723.50
2018-03-25T09:44:05.356Z,100723.80
2018-03-25T09:46:34.404Z,100717.05
2018-03-25T09:49:03.487Z,100723.44
2018-03-25T09:51:32.542Z,100723.53
2018-03-25T09:54:01.634Z,100724.79
2018-03-25T09:56:30.708Z,100724.86
2018-03-25T09:58:59.764Z,100726.14
2018-03-25T10:01:38.571Z,100730.25
2018-03-25T10:04:07.676Z,100732.98
2018-03-25T10:06:36.728Z,100733.38
2018-03-25T10:09:05.316Z,100738.35
2018-03-25T10:11:34.420Z,100743.69
2018-03-25T10:14:03.476Z,100743.32
2018-03-25T10:16:32.537Z,100747.20
2018-03-25T10:19:01.396Z,100746.88
2018-03-25T10:21:30.458Z,100744.11
2018-03-25T10:23:59.528Z,100752.64
2018-03-25T10:26:28.620Z,100758.04
2018-03-25T10:28:57.678Z,100759.88
2018-03-25T10:31:26.773Z,100754.06
2018-03-25T10:33:55.841Z,100756.59
2018-03-25T10:36:24.896Z,100755.73
2018-03-25T10:38:53.961Z,100754.84
2018-03-25T10:41:23.012Z,100759.82
2018-03-25T10:43:52.067Z,100755.34
2018-03-25T10:46:21.243Z,100759.82
2018-03-25T10:48:50.290Z,100755.41
2018-03-25T10:51:19.342Z,100759.39
2018-03-25T10:53:48.745Z,100761.30
2018-03-25T10:56:17.792Z,100762.52
2018-03-25T10:58:46.676Z,100764.49
2018-03-25T11:01:15.748Z,100759.55
2018-03-25T11:03:44.801Z,100767.55
2018-03-25T11:06:13.849Z,100764.03
2018-03-25T11:08:43.329Z,100764.79
2018-03-25T11:11:12.390Z,100768.34
2018-03-25T11:13:41.453Z,100776.08
2018-03-25T11:16:10.515Z,100770.42
2018-03-25T11:18:39.572Z,100773.48
2018-03-25T11:21:08.621Z,100772.26
2018-03-25T11:23:37.503Z,100775.30
2018-03-25T11:26:06.560Z,100777.92
2018-03-25T11:28:35.671Z,100781.55
2018-03-25T11:31:04.923Z,100780.30
2018-03-25T11:33:33.804Z,100783.00
2018-03-25T11:36:02.856Z,100781.55
2018-03-25T11:38:31.936Z,100790.59
2018-03-25T11:41:00.991Z,100785.20
2018-03-25T11:43:30.051Z,100787.97
2018-03-25T11:45:59.113Z,100793.30
2018-03-25T11:48:28.180Z,100788.82
2018-03-25T11:50:57.242Z,100790.14
2018-03-25T11:53:26.326Z,100795.63
2018-03-25T11:55:55.378Z,100791.09
2018-03-25T11:58:24.428Z,100797.84
2018-03-25T12:00:53.634Z,100793.36
2018-03-25T12:03:22.708Z,100787.70
2018-03-25T12:05:51.803Z,100798.43
2018-03-25T12:08:20.891Z,100797.64
2018-03-25T12:10:49.937Z,100803.30
2018-03-25T12:13:18.994Z,100800.54
2018-03-25T12:15:48.081Z,100799.69
2018-03-25T12:18:17.182Z,100802.55
2018-03-25T12:20:46.244Z,100801.20
2018-03-25T12:23:15.312Z,100806.03
2018-03-25T12:25:44.380Z,100809.63
2018-03-25T12:28:13.440Z,100806.92
2018-03-25T12:30:42.772Z,100808.44
2018-03-25T12:33:11.872Z,100806.10
2018-03-25T12:35:41.096Z,100806.72
2018-03-25T12:38:10.170Z,100802.67
2018-03-25T12:40:39.220Z,100810.70
2018-03-25T12:43:08.056Z,100810.31
2018-03-25T12:45:37.201Z,100811.33
2018-03-25T12:48:06.247Z,100814.45
2018-03-25T12:50:35.323Z,100810.77
2018-03-25T12:53:04.692Z,100813.01
2018-03-25T12:55:33.736Z,100810.02
2018-03-25T12:58:02.809Z,100814.13
2018-03-25T13:00:32.130Z,100818.33
2018-03-25T13:03:01.182Z,100807.53
2018-03-25T13:05:30.296Z,100809.22
2018-03-25T13:07:59.670Z,100812.84
2018-03-25T13:10:28.724Z,100811.85
2018-03-25T13:12:57.773Z,100813.76
2018-03-25T13:15:27.103Z,100811.06
2018-03-25T13:17:56.162Z,100819.59
2018-03-25T13:20:25.273Z,100812.41
2018-03-25T13:22:54.352Z,100813.70
2018-03-25T13:25:23.220Z,100821.80
2018-03-25T13:27:52.267Z,100817.31
2018-03-25T13:30:21.634Z,100816.06
2018-03-25T13:32:50.693Z,100814.22
2018-03-25T13:35:19.743Z,100816.91
2018-03-25T13:37:49.420Z,100819.45
2018-03-25T13:40:18.476Z,100821.36
2018-03-25T13:42:47.540Z,100821.73
2018-03-25T13:45:16.924Z,100823.08
2018-03-25T13:47:45.980Z,100822.22
2018-03-25T13:50:15.024Z,100825.78
2018-03-25T13:52:44.403Z,100831.11
2018-03-25T13:55:13.454Z,100829.77
2018-03-25T13:57:42.500Z,100826.20
2018-03-25T14:00:11.893Z,100822.55
2018-03-25T14:02:40.940Z,100835.06
2018-03-25T14:05:11.801Z,100832.95
2018-03-25T14:07:41.233Z,100837.50
2018-03-25T14:10:10.272Z,100841.05
2018-03-25T14:12:39.338Z,100836.08
2018-03-25T14:15:08.520Z,100837.40
2018-03-25T14:17:37.576Z,100837.34
2018-03-25T14:20:06.384Z,100836.48
2018-03-25T14:22:35.457Z,100833.72
2018-03-25T14:25:04.511Z,100835.06
2018-03-25T14:27:33.369Z,100834.58
2018-03-25T14:30:02.838Z,100832.77
2018-03-25T14:32:31.853Z,100835.06
2018-03-25T14:35:00.910Z,100841.78
2018-03-25T14:37:29.975Z,100841.81
2018-03-25T14:39:59.028Z,100842.67
2018-03-25T14:42:28.076Z,100844.52
2018-03-25T14:44:57.140Z,100844.48
2018-03-25T14:47:26.197Z,100852.48
2018-03-25T14:49:55.294Z,100848.50
2018-03-25T14:52:24.532Z,100841.36
2018-03-25T14:54:53.581Z,100850.80
2018-03-25T14:57:22.636Z,100855.38
2018-03-25T14:59:51.706Z,100863.87
2018-03-25T15:02:20.758Z,100859.42
2018-03-25T15:04:49.809Z,100859.92
2018-03-25T15:07:18.886Z,100867.43
2018-03-25T15:09:47.928Z,100869.83
2018-03-25T15:12:16.980Z,100868.54
2018-03-25T15:14:46.077Z,100874.30
2018-03-25T15:17:15.124Z,100875.62
2018-03-25T15:19:44.185Z,100886.42
2018-03-25T15:22:13.113Z,100882.03
2018-03-25T15:24:42.170Z,100886.08
2018-03-25T15:27:11.224Z,100883.02
2018-03-25T15:29:40.288Z,100883.81
2018-03-25T15:32:09.339Z,100886.18
2018-03-25T15:34:38.398Z,100891.98
2018-03-25T15:37:07.468Z,100890.30
2018-03-25T15:39:36.511Z,100896.98
2018-03-25T15:42:05.564Z,100902.22
2018-03-25T15:44:36.300Z,100902.28
2018-03-25T15:47:05.356Z,100901.70
2018-03-25T15:49:34.404Z,100899.48
2018-03-25T15:52:03.483Z,100901.36
2018-03-25T15:54:32.560Z,100906.82
2018-03-25T15:57:01.644Z,100909.61
2018-03-25T15:59:31.024Z,100911.88
2018-03-25T16:02:00.147Z,100911.80
2018-03-25T16:04:29.215Z,100920.91
2018-03-25T16:06:58.168Z,100919.49
2018-03-25T16:09:27.122Z,100920.48
2018-03-25T16:11:56.223Z,100921.83
2018-03-25T16:14:25.313Z,100925.45
2018-03-25T16:16:54.360Z,100921.39
2018-03-25T16:19:23.848Z,100925.81
2018-03-25T16:21:53.088Z,100930.45
2018-03-25T16:24:22.186Z,100929.77
2018-03-25T16:26:51.243Z,100935.23
2018-03-25T16:29:20.689Z,100936.58
2018-03-25T16:31:49.736Z,100936.52
2018-03-25T16:34:18.787Z,100939.21
2018-03-25T16:36:48.118Z,100939.73
2018-03-25T16:39:17.172Z,100941.15
2018-03-25T16:41:46.232Z,100942.92
2018-03-25T16:44:15.669Z,100945.05
2018-03-25T16:46:44.783Z,100947.68
2018-03-25T16:49:13.840Z,100960.69
2018-03-25T16:51:43.305Z,100954.83
2018-03-25T16:54:12.348Z,100957.55
2018-03-25T16:56:41.400Z,100962.59
2018-03-25T16:59:10.850Z,100967.83
2018-03-25T17:01:39.748Z,100970.59
2018-03-25T17:04:08.798Z,100975.53
2018-03-25T17:06:37.681Z,100977.77
2018-03-25T17:09:06.093Z,100978.63
2018-03-25T17:11:35.136Z,100977.77
2018-03-25T17:14:05.008Z,100984.83
2018-03-25T17:16:34.062Z,100985.78
2018-03-25T17:19:03.109Z,100990.28
2018-03-25T17:21:32.503Z,100992.03
2018-03-25T17:24:01.551Z,100990.66
2018-03-25T17:26:30.523Z,100998.27
2018-03-25T17:28:59.434Z,100999.68
2018-03-25T17:31:28.407Z,101000.20
2018-03-25T17:33:57.588Z,101012.28
2018-03-25T17:36:26.740Z,101011.40
2018-03-25T17:38:55.810Z,101015.45
2018-03-25T17:41:24.869Z,101019.53
2018-03-25T17:43:53.934Z,101013.70
2018-03-25T17:46:22.989Z,101017.23
2018-03-25T17:48:52.046Z,101017.66
2018-03-25T17:51:21.628Z,101022.69
2018-03-25T17:53:50.542Z,101021.80
2018-03-25T17:56:19.650Z,101032.63
2018-03-25T17:58:48.974Z,101034.34
2018-03-25T18:01:18.044Z,101033.02
2018-03-25T18:03:47.098Z,101041.64
2018-03-25T18:06:16.544Z,101040.17
2018-03-25T18:08:45.604Z,101044.16
2018-03-25T18:11:14.816Z,101042.88
2018-03-25T18:13:43.893Z,101049.22
2018-03-25T18:16:12.974Z,101051.43
2018-03-25T18:18:42.030Z,101050.58
2018-03-25T18:21:11.100Z,101059.09
2018-03-25T18:23:40.160Z,101056.80
2018-03-25T18:26:09.208Z,101067.60
2018-03-25T18:28:38.216Z,101073.52
2018-03-25T18:31:07.879Z,101077.59
2018-03-25T18:33:36.860Z,101080.72
2018-03-25T18:36:05.933Z,101083.89
2018-03-25T18:38:34.989Z,101083.42
2018-03-25T18:41:04.044Z,101090.64
2018-03-25T18:43:33.464Z,101090.14
2018-03-25T18:46:03.376Z,101096.06
2018-03-25T18:48:32.449Z,101098.24
2018-03-25T18:51:01.525Z,101102.81
2018-03-25T18:53:30.584Z,101110.52
2018-03-25T18:55:59.629Z,101114.11
2018-03-25T18:58:28.695Z,101116.83
2018-03-25T19:00:57.745Z,101111.55
2018-03-25T19:03:26.846Z,101115.59
2018-03-25T19:05:56.432Z,101123.58
2018-03-25T19:08:25.741Z,101123.89
2018-03-25T19:10:54.801Z,101128.46
2018-03-25T19:13:23.888Z,101141.04
2018-03-25T19:15:52.935Z,101137.14
2018-03-25T19:18:21.988Z,101138.83
2018-03-25T19:20:51.444Z,101142.88
2018-03-25T19:23:20.484Z,101145.98
2018-03-25T19:25:49.525Z,101143.83
2018-03-25T19:28:18.912Z,101147.02
2018-03-25T19:30:47.964Z,101146.09
2018-03-25T19:33:17.016Z,101145.66
2018-03-25T19:35:46.135Z,101150.64
2018-03-25T19:38:16.096Z,101151.00
2018-03-25T19:40:45.156Z,101151.90
2018-03-25T19:43:14.481Z,101148.28
2018-03-25T19:45:43.540Z,101151.00
2018-03-25T19:48:12.616Z,101156.41
2018-03-25T19:50:41.688Z,101157.30
2018-03-25T19:53:10.732Z,101156.41
2018-03-25T19:55:39.785Z,101154.20
2018-03-25T19:58:08.865Z,101158.65
2018-03-25T20:00:37.918Z,101157.73
2018-03-25T20:03:06.756Z,101165.28
2018-03-25T20:05:35.940Z,101168.44
2018-03-25T20:08:04.568Z,101175.05
2018-03-25T20:10:33.437Z,101180.72
2018-03-25T20:13:02.508Z,101179.66
2018-03-25T20:15:31.562Z,101187.58
2018-03-25T20:18:00.698Z,101193.30
2018-03-25T20:20:30.036Z,101190.50
2018-03-25T20:22:59.093Z,101188.14
2018-03-25T20:25:28.163Z,101190.23
2018-03-25T20:27:57.525Z,101195.55
2018-03-25T20:30:26.621Z,101188.70
2018-03-25T20:32:55.668Z,101188.65
2018-03-25T20:35:25.045Z,101191.27
2018-03-25T20:37:54.095Z,101191.63
2018-03-25T20:40:23.166Z,101195.97
2018-03-25T20:42:53.188Z,101195.91
2018-03-25T20:45:22.237Z,101199.44
2018-03-25T20:47:51.302Z,101206.56
2018-03-25T20:50:20.496Z,101206.90
2018-03-25T20:52:49.550Z,101205.98
2018-03-25T20:55:18.596Z,101207.27
2018-03-25T20:57:47.953Z,101210.37
2018-03-25T21:00:17.013Z,101209.82
2018-03-25T21:02:46.860Z,101207.13
2018-03-25T21:05:16.485Z,101205.34
2018-03-25T21:07:45.547Z,101207.95
2018-03-25T21:10:14.595Z,101211.45
2018-03-25T21:12:43.976Z,101215.05
2018-03-25T21:15:13.085Z,101215.42
2018-03-25T21:17:42.144Z,101219.96
2018-03-25T21:20:11.218Z,101216.28
2018-03-25T21:22:40.271Z,101220.82
2018-03-25T21:25:09.331Z,101222.97
2018-03-25T21:27:38.400Z,101222.97
2018-03-25T21:30:07.467Z,101229.70
2018-03-25T21:32:36.526Z,101230.06
2018-03-25T21:35:05.591Z,101229.55
2018-03-25T21:37:34.460Z,101234.06
2018-03-25T21:40:03.516Z,101237.65
2018-03-25T21:42:32.591Z,101237.16
2018-03-25T21:45:01.479Z,101241.16
2018-03-25T21:47:30.542Z,101240.66
2018-03-25T21:49:59.888Z,101245.20
2018-03-25T21:52:28.947Z,101241.55
2018-03-25T21:54:58.047Z,101238.30
2018-03-25T21:57:27.276Z,101245.12
2018-03-25T21:59:56.323Z,101245.98
2018-03-25T22:02:25.405Z,101241.84
2018-03-25T22:04:54.472Z,101244.97
2018-03-25T22:07:23.533Z,101240.95
2018-03-25T22:09:52.682Z,101237.78
2018-03-25T22:12:22.064Z,101237.30
2018-03-25T22:14:51.115Z,101240.86
2018-03-25T22:17:20.163Z,101241.72
2018-03-25T22:19:49.520Z,101242.20
2018-03-25T22:22:18.600Z,101243.92
2018-03-25T22:24:47.649Z,101236.73
2018-03-25T22:27:16.717Z,101243.03
2018-03-25T22:29:45.775Z,101240.80
2018-03-25T22:32:14.840Z,101233.61
2018-03-25T22:34:44.420Z,101239.45
2018-03-25T22:37:13.473Z,101245.77
2018-03-25T22:39:42.534Z,101243.92
2018-03-25T22:42:11.720Z,101239.50
2018-03-25T22:44:40.772Z,101242.70
2018-03-25T22:47:09.822Z,101240.42
2018-03-25T22:49:39.303Z,101243.50
2018-03-25T22:52:08.348Z,101244.91
2018-03-25T22:54:37.388Z,101247.61
2018-03-25T22:57:06.461Z,101244.41
2018-03-25T22:59:35.584Z,101239.99
2018-03-25T23:02:04.797Z,101242.20
2018-03-25T23:04:33.867Z,101244.48
2018-03-25T23:07:02.921Z,101244.84
2018-03-25T23:09:31.981Z,101243.62
2018-03-25T23:12:01.051Z,101246.41
2018-03-25T23:14:30.107Z,101252.09
2018-03-25T23:16:59.151Z,101246.26
2018-03-25T23:19:28.221Z,101249.45
2018-03-25T23:21:57.271Z,101244.91
2018-03-25T23:24:26.366Z,101238.09
2018-03-25T23:26:55.744Z,101243.50
2018-03-25T23:29:24.788Z,101239.45
2018-03-25T23:31:53.957Z,101245.28
2018-03-25T23:34:23.660Z,101239.84
2018-03-25T23:36:52.708Z,101237.58
2018-03-25T23:39:21.780Z,101236.59
2018-03-25T23:41:50.848Z,101232.54
2018-03-25T23:44:19.897Z,101234.81
2018-03-25T23:46:48.943Z,101236.59
2018-03-25T23:49:18.307Z,101238.34
2018-03-25T23:51:47.352Z,101238.80
2018-03-25T23:54:16.399Z,101246.91
2018-03-25T23:56:45.787Z,101242.39
2018-03-25T23:59:14.834Z,101240.13
